Time;durP1;ratioP1;P1;durP2;ratioP2;P2;SDS_P1;SDS_P2;PMS_P1;PMS_P2;Temp;Humidity;BMP_temperature;BMP_pressure;BME280_temperature;BME280_humidity;BME280_pressure;Samples;Min_cycle;Max_cycle;Signal;HPM_P1;HPM_P2
2023/02/13 00:01:05;;;;;;;;;;;6.70;99.90;;;;;;4985406;28;19925;-78
2023/02/13 00:03:32;;;;;;;;;;;6.60;99.90;;;;;;4993010;28;19929;-78
2023/02/13 00:05:58;;;;;;;;;;;6.60;99.90;;;;;;5000313;28;19929;-78
2023/02/13 00:08:25;;;;;;;;;;;6.40;99.90;;;;;;4990624;28;19933;-77
2023/02/13 00:10:51;;;;;;;;;;;6.50;99.90;;;;;;5011814;28;20024;-79
2023/02/13 00:13:18;;;;;;;;;;;6.50;99.90;;;;;;4996343;28;20032;-79
2023/02/13 00:15:45;;;;;;;;;;;6.50;99.90;;;;;;5010194;28;19926;-77
2023/02/13 00:18:11;;;;;;;;;;;6.50;99.90;;;;;;5007050;28;19980;-80
2023/02/13 00:20:38;;;;;;;;;;;6.40;99.90;;;;;;4989922;28;19925;-78
2023/02/13 00:23:05;;;;;;;;;;;6.40;99.90;;;;;;4995443;28;20100;-78
2023/02/13 00:25:32;;;;;;;;;;;6.50;99.90;;;;;;5009487;28;19929;-78
2023/02/13 00:27:58;;;;;;;;;;;6.50;99.90;;;;;;4997494;28;19934;-77
2023/02/13 00:30:26;;;;;;;;;;;6.40;99.90;;;;;;5012834;28;20004;-78
2023/02/13 00:32:52;;;;;;;;;;;6.40;99.90;;;;;;4996500;28;19930;-77
2023/02/13 00:35:22;;;;;;;;;;;6.50;99.90;;;;;;4979560;28;20334;-79
2023/02/13 00:37:54;;;;;;;;;;;6.50;99.90;;;;;;4993814;28;19949;-77
2023/02/13 00:40:23;;;;;;;;;;;6.50;99.90;;;;;;4998492;28;20047;-78
2023/02/13 00:42:50;;;;;;;;;;;6.60;99.90;;;;;;5008549;28;19968;-78
2023/02/13 00:45:16;;;;;;;;;;;6.60;99.90;;;;;;4993637;28;19961;-78
2023/02/13 00:47:43;;;;;;;;;;;6.60;99.90;;;;;;5015751;28;20572;-79
2023/02/13 00:50:09;;;;;;;;;;;6.60;99.90;;;;;;5001920;28;20141;-80
2023/02/13 00:52:36;;;;;;;;;;;6.50;99.90;;;;;;4995771;28;19972;-77
2023/02/13 00:55:03;;;;;;;;;;;6.50;99.90;;;;;;5014583;28;19955;-78
2023/02/13 00:57:30;;;;;;;;;;;6.40;99.90;;;;;;4996992;28;20214;-78
2023/02/13 00:59:57;;;;;;;;;;;6.50;99.90;;;;;;5015911;28;20417;-78
2023/02/13 01:02:24;;;;;;;;;;;6.50;99.90;;;;;;5014556;28;20117;-78
2023/02/13 01:04:50;;;;;;;;;;;6.40;99.90;;;;;;5008973;28;19932;-77
2023/02/13 01:07:17;;;;;;;;;;;6.40;99.90;;;;;;5003524;28;19925;-77
2023/02/13 01:09:44;;;;;;;;;;;6.40;99.90;;;;;;4999747;28;20052;-78
2023/02/13 01:12:10;;;;;;;;;;;6.50;99.90;;;;;;5015817;28;19933;-80
2023/02/13 01:14:37;;;;;;;;;;;6.50;99.90;;;;;;4994849;28;19932;-79
2023/02/13 01:17:03;;;;;;;;;;;6.50;99.90;;;;;;4998099;28;19925;-81
2023/02/13 01:19:30;;;;;;;;;;;6.50;99.90;;;;;;4982567;28;19925;-81
2023/02/13 01:21:58;;;;;;;;;;;6.40;99.90;;;;;;5009482;28;19925;-80
2023/02/13 01:24:28;;;;;;;;;;;6.30;99.90;;;;;;5013301;28;19925;-79
2023/02/13 01:26:56;;;;;;;;;;;6.30;99.90;;;;;;5006355;28;19949;-78
2023/02/13 01:29:23;;;;;;;;;;;6.20;99.90;;;;;;5013917;28;20146;-78
2023/02/13 01:31:49;;;;;;;;;;;6.10;99.90;;;;;;5006511;28;20592;-79
2023/02/13 01:34:16;;;;;;;;;;;6.10;99.90;;;;;;5001589;28;19929;-81
2023/02/13 01:36:43;;;;;;;;;;;6.10;99.90;;;;;;5011239;28;19929;-80
2023/02/13 01:39:10;;;;;;;;;;;6.10;99.90;;;;;;4996901;28;19933;-78
2023/02/13 01:41:37;;;;;;;;;;;6.10;99.90;;;;;;5013695;28;19925;-79
2023/02/13 01:44:23;;;;;;;;;;;6.10;99.90;;;;;;5013323;28;19929;-78
2023/02/13 01:46:50;;;;;;;;;;;6.00;99.90;;;;;;4976196;28;19991;-79
2023/02/13 01:49:19;;;;;;;;;;;6.00;99.90;;;;;;4980190;28;20349;-80
2023/02/13 01:51:48;;;;;;;;;;;6.00;99.90;;;;;;4995911;28;19926;-79
2023/02/13 01:54:16;;;;;;;;;;;5.90;99.90;;;;;;4995282;28;20430;-79
2023/02/13 01:56:47;;;;;;;;;;;5.90;99.90;;;;;;5007524;28;19929;-79
2023/02/13 01:59:34;;;;;;;;;;;5.90;99.90;;;;;;4995910;28;19971;-80
2023/02/13 02:02:01;;;;;;;;;;;5.80;99.90;;;;;;4992215;28;19926;-80
2023/02/13 02:04:31;;;;;;;;;;;5.90;99.90;;;;;;4995348;28;20444;-79
2023/02/13 02:07:01;;;;;;;;;;;5.90;99.90;;;;;;4998800;28;19955;-79
2023/02/13 02:09:34;;;;;;;;;;;5.70;99.90;;;;;;5009173;28;20483;-78
2023/02/13 02:12:07;;;;;;;;;;;5.70;99.90;;;;;;5012590;28;19929;-79
2023/02/13 02:14:38;;;;;;;;;;;5.60;99.90;;;;;;4978922;28;19926;-78
2023/02/13 02:17:06;;;;;;;;;;;5.60;99.90;;;;;;5009738;28;19980;-79
2023/02/13 02:19:37;;;;;;;;;;;5.60;99.90;;;;;;4997713;28;19938;-79
2023/02/13 02:22:03;;;;;;;;;;;5.60;99.90;;;;;;5002677;28;19932;-79
2023/02/13 02:24:33;;;;;;;;;;;5.60;99.90;;;;;;4980681;28;20331;-79
2023/02/13 02:27:06;;;;;;;;;;;5.60;99.90;;;;;;5001888;28;20399;-79
2023/02/13 02:29:46;;;;;;;;;;;5.70;99.90;;;;;;5005361;28;19934;-79
2023/02/13 02:32:28;;;;;;;;;;;5.70;99.90;;;;;;5010848;28;19952;-79
2023/02/13 02:35:03;;;;;;;;;;;5.70;99.90;;;;;;4992947;28;20058;-79
2023/02/13 02:37:32;;;;;;;;;;;5.70;99.90;;;;;;4998239;28;19925;-79
2023/02/13 02:39:59;;;;;;;;;;;5.70;99.90;;;;;;5010091;28;19957;-81
2023/02/13 02:42:33;;;;;;;;;;;5.80;99.90;;;;;;4980701;28;20429;-81
2023/02/13 02:45:15;;;;;;;;;;;5.80;99.90;;;;;;5011175;28;20347;-78
2023/02/13 02:50:55;;;;;;;;;;;5.80;99.90;;;;;;4995133;28;19937;-78
2023/02/13 02:53:32;;;;;;;;;;;5.80;99.90;;;;;;5008135;28;20000;-79
2023/02/13 02:56:15;;;;;;;;;;;5.80;99.90;;;;;;4988960;28;20407;-77
2023/02/13 03:07:17;;;;;;;;;;;5.90;99.90;;;;;;4993935;28;19929;-80
2023/02/13 03:15:27;;;;;;;;;;;5.90;99.90;;;;;;4990251;28;19930;-80
2023/02/13 03:24:10;;;;;;;;;;;5.80;99.90;;;;;;4987862;28;20338;-79
2023/02/13 03:26:50;;;;;;;;;;;5.80;99.90;;;;;;4929633;28;19936;-80
2023/02/13 03:32:28;;;;;;;;;;;5.80;99.90;;;;;;4994660;28;20033;-79
2023/02/13 03:38:04;;;;;;;;;;;5.90;99.90;;;;;;4995979;28;19995;-80
2023/02/13 03:41:17;;;;;;;;;;;5.90;99.90;;;;;;5004996;28;19926;-78
2023/02/13 03:43:34;;;;;;;;;;;5.90;99.90;;;;;;5011306;28;19929;-79
2023/02/13 03:46:02;;;;;;;;;;;5.80;99.90;;;;;;5003339;28;19925;-79
2023/02/13 03:51:20;;;;;;;;;;;5.80;99.90;;;;;;4995397;28;19925;-78
2023/02/13 03:53:48;;;;;;;;;;;5.80;99.90;;;;;;5013664;28;20028;-78
2023/02/13 03:59:12;;;;;;;;;;;5.80;99.90;;;;;;4999900;28;19926;-77
2023/02/13 04:01:41;;;;;;;;;;;5.80;99.90;;;;;;5009141;28;19932;-77
2023/02/13 04:04:29;;;;;;;;;;;5.90;99.90;;;;;;5012046;28;19952;-77
2023/02/13 04:07:08;;;;;;;;;;;5.80;99.90;;;;;;4993981;28;19997;-77
2023/02/13 04:09:39;;;;;;;;;;;5.80;99.90;;;;;;4983599;28;20290;-78
2023/02/13 04:12:11;;;;;;;;;;;5.80;99.90;;;;;;5006858;28;19925;-78
2023/02/13 04:14:40;;;;;;;;;;;5.80;99.90;;;;;;4995818;28;20382;-78
2023/02/13 04:17:17;;;;;;;;;;;5.80;99.90;;;;;;5005462;28;20017;-77
2023/02/13 04:19:44;;;;;;;;;;;5.80;99.90;;;;;;4995635;28;19933;-77
2023/02/13 04:22:11;;;;;;;;;;;5.70;99.90;;;;;;5003921;28;19953;-79
2023/02/13 04:24:37;;;;;;;;;;;5.80;99.90;;;;;;5010946;28;19975;-77
2023/02/13 04:27:04;;;;;;;;;;;5.80;99.90;;;;;;4999931;28;19929;-78
2023/02/13 04:29:31;;;;;;;;;;;5.70;99.90;;;;;;5006984;28;20032;-78
2023/02/13 04:31:57;;;;;;;;;;;5.80;99.90;;;;;;5002427;28;19932;-79
2023/02/13 04:34:24;;;;;;;;;;;5.80;99.90;;;;;;5009898;28;19993;-79
2023/02/13 04:36:50;;;;;;;;;;;5.80;99.90;;;;;;4994034;28;19932;-78
2023/02/13 04:39:17;;;;;;;;;;;5.80;99.90;;;;;;4997431;28;20317;-80
2023/02/13 04:41:44;;;;;;;;;;;5.80;99.90;;;;;;5010431;28;19926;-78
2023/02/13 04:44:11;;;;;;;;;;;5.80;99.90;;;;;;4999161;28;19926;-79
2023/02/13 04:46:37;;;;;;;;;;;5.80;99.90;;;;;;4999505;28;20433;-77
2023/02/13 04:49:04;;;;;;;;;;;5.80;99.90;;;;;;5009351;28;19931;-78
2023/02/13 04:51:31;;;;;;;;;;;5.70;99.90;;;;;;4999000;28;19930;-78
2023/02/13 04:53:57;;;;;;;;;;;5.80;99.90;;;;;;5014539;28;19932;-78
2023/02/13 04:56:24;;;;;;;;;;;5.60;99.90;;;;;;4990537;28;19932;-78
2023/02/13 04:58:50;;;;;;;;;;;5.60;99.90;;;;;;5014844;28;20658;-77
2023/02/13 05:01:17;;;;;;;;;;;5.50;99.90;;;;;;4991665;28;20539;-78
2023/02/13 05:03:44;;;;;;;;;;;5.50;99.90;;;;;;5015243;28;19926;-77
2023/02/13 05:06:11;;;;;;;;;;;5.50;99.90;;;;;;5013795;28;20374;-77
2023/02/13 05:08:37;;;;;;;;;;;5.40;99.90;;;;;;5011220;28;19940;-77
2023/02/13 05:11:05;;;;;;;;;;;5.50;99.90;;;;;;4992054;28;20543;-78
2023/02/13 05:13:31;;;;;;;;;;;5.40;99.90;;;;;;5013925;28;19925;-77
2023/02/13 05:15:58;;;;;;;;;;;5.40;99.90;;;;;;4985806;28;19926;-76
2023/02/13 05:18:24;;;;;;;;;;;5.50;99.90;;;;;;5000995;28;19925;-78
2023/02/13 05:23:36;;;;;;;;;;;5.50;99.90;;;;;;5014730;28;19948;-77
2023/02/13 05:26:03;;;;;;;;;;;5.50;99.90;;;;;;4999514;28;19925;-77
2023/02/13 05:31:16;;;;;;;;;;;5.40;99.90;;;;;;4996073;28;19933;-78
2023/02/13 05:33:42;;;;;;;;;;;5.20;99.90;;;;;;5015236;28;20420;-78
2023/02/13 05:36:09;;;;;;;;;;;5.10;99.90;;;;;;5014367;28;20600;-77
2023/02/13 05:38:35;;;;;;;;;;;5.00;99.90;;;;;;5014645;28;19976;-78
2023/02/13 05:41:02;;;;;;;;;;;5.00;99.90;;;;;;5012795;28;19925;-77
2023/02/13 05:43:29;;;;;;;;;;;4.90;99.90;;;;;;5013501;28;19929;-76
2023/02/13 05:46:06;;;;;;;;;;;5.00;99.90;;;;;;5007240;28;19976;-76
2023/02/13 05:48:33;;;;;;;;;;;5.00;99.90;;;;;;5001061;28;20350;-77
2023/02/13 05:51:00;;;;;;;;;;;5.00;99.90;;;;;;4998342;28;20461;-78
2023/02/13 05:53:28;;;;;;;;;;;5.00;99.90;;;;;;4995545;28;20384;-77
2023/02/13 05:55:55;;;;;;;;;;;5.00;99.90;;;;;;5015695;28;19925;-78
2023/02/13 05:58:22;;;;;;;;;;;5.00;99.90;;;;;;5015686;28;20537;-78
2023/02/13 06:00:48;;;;;;;;;;;5.00;99.90;;;;;;4983975;28;19935;-77
2023/02/13 06:03:15;;;;;;;;;;;5.00;99.90;;;;;;4997764;28;19949;-78
2023/02/13 06:05:41;;;;;;;;;;;5.00;99.90;;;;;;5000888;28;19926;-79
2023/02/13 06:08:08;;;;;;;;;;;5.00;99.90;;;;;;4999264;28;19929;-77
2023/02/13 06:10:35;;;;;;;;;;;5.00;99.90;;;;;;4983528;28;20044;-79
2023/02/13 06:13:02;;;;;;;;;;;4.90;99.90;;;;;;5012952;28;19926;-79
2023/02/13 06:15:28;;;;;;;;;;;4.90;99.90;;;;;;5001048;28;19934;-78
2023/02/13 06:17:55;;;;;;;;;;;4.90;99.90;;;;;;5002118;28;19935;-78
2023/02/13 06:20:21;;;;;;;;;;;4.90;99.90;;;;;;4996483;28;19961;-77
2023/02/13 06:22:52;;;;;;;;;;;4.90;99.90;;;;;;5018495;28;19925;-77
2023/02/13 06:25:19;;;;;;;;;;;5.00;99.90;;;;;;5013812;28;21035;-78
2023/02/13 06:27:46;;;;;;;;;;;4.90;99.90;;;;;;5005125;28;19935;-77
2023/02/13 06:30:13;;;;;;;;;;;4.90;99.90;;;;;;5015506;28;20020;-77
2023/02/13 06:32:40;;;;;;;;;;;5.00;99.90;;;;;;4994316;28;19925;-78
2023/02/13 06:35:07;;;;;;;;;;;5.00;99.90;;;;;;4986749;28;19926;-79
2023/02/13 06:37:34;;;;;;;;;;;5.00;99.90;;;;;;4995914;28;19937;-77
2023/02/13 06:40:01;;;;;;;;;;;5.00;99.90;;;;;;4999200;28;19929;-79
2023/02/13 06:42:27;;;;;;;;;;;5.00;99.90;;;;;;4999681;28;19960;-77
2023/02/13 06:44:54;;;;;;;;;;;5.00;99.90;;;;;;5015716;28;20406;-77
2023/02/13 06:47:21;;;;;;;;;;;5.00;99.90;;;;;;5013881;28;20275;-78
2023/02/13 06:49:47;;;;;;;;;;;5.00;99.90;;;;;;4993902;28;19930;-77
2023/02/13 06:52:14;;;;;;;;;;;5.00;99.90;;;;;;5010723;28;19930;-77
2023/02/13 06:54:40;;;;;;;;;;;5.00;99.90;;;;;;4992729;28;19926;-78
2023/02/13 06:57:14;;;;;;;;;;;5.00;99.90;;;;;;5005890;28;19926;-78
2023/02/13 06:59:40;;;;;;;;;;;5.00;99.90;;;;;;5012456;28;20306;-78
2023/02/13 07:02:09;;;;;;;;;;;5.10;99.90;;;;;;5012044;28;20455;-79
2023/02/13 07:04:35;;;;;;;;;;;5.10;99.90;;;;;;4997559;28;20448;-77
2023/02/13 07:07:02;;;;;;;;;;;5.10;99.90;;;;;;5005716;28;20027;-78
2023/02/13 07:09:29;;;;;;;;;;;5.20;99.90;;;;;;5005908;28;20314;-78
2023/02/13 07:11:56;;;;;;;;;;;5.20;99.90;;;;;;5015213;28;19940;-79
2023/02/13 07:14:23;;;;;;;;;;;5.20;99.90;;;;;;5011462;28;19936;-77
2023/02/13 07:16:50;;;;;;;;;;;5.20;99.90;;;;;;4993247;28;19925;-77
2023/02/13 07:19:16;;;;;;;;;;;5.30;99.90;;;;;;5007108;28;19932;-79
2023/02/13 07:21:43;;;;;;;;;;;5.40;99.90;;;;;;5014129;28;19931;-77
2023/02/13 07:24:09;;;;;;;;;;;5.30;99.90;;;;;;5008550;28;19926;-78
2023/02/13 07:26:36;;;;;;;;;;;5.30;99.90;;;;;;4996825;28;19925;-78
2023/02/13 07:29:04;;;;;;;;;;;5.40;99.90;;;;;;5007834;28;20417;-77
2023/02/13 07:31:38;;;;;;;;;;;5.30;99.90;;;;;;5006464;28;20361;-77
2023/02/13 07:34:05;;;;;;;;;;;5.30;99.90;;;;;;4996586;28;19929;-78
2023/02/13 07:36:32;;;;;;;;;;;5.30;99.90;;;;;;5005136;28;19968;-79
2023/02/13 07:38:58;;;;;;;;;;;5.30;99.90;;;;;;5009428;28;20024;-77
2023/02/13 07:41:25;;;;;;;;;;;5.30;99.90;;;;;;5008735;28;19926;-79
2023/02/13 07:43:52;;;;;;;;;;;5.30;99.90;;;;;;5008988;28;19975;-79
2023/02/13 07:46:19;;;;;;;;;;;5.30;99.90;;;;;;4990195;28;19934;-78
2023/02/13 07:48:45;;;;;;;;;;;5.30;99.90;;;;;;5014941;28;19926;-77
2023/02/13 07:51:12;;;;;;;;;;;5.30;99.90;;;;;;4996113;28;19932;-77
2023/02/13 07:53:39;;;;;;;;;;;5.40;99.90;;;;;;5001031;28;20012;-78
2023/02/13 07:56:06;;;;;;;;;;;5.40;99.90;;;;;;4989398;28;19925;-79
2023/02/13 07:58:33;;;;;;;;;;;5.40;99.90;;;;;;4995952;28;19940;-77
2023/02/13 08:01:04;;;;;;;;;;;5.30;99.90;;;;;;5004556;28;19929;-78
2023/02/13 08:03:31;;;;;;;;;;;5.30;99.90;;;;;;4994550;28;19929;-79
2023/02/13 08:05:57;;;;;;;;;;;5.30;99.90;;;;;;5009930;28;19925;-77
2023/02/13 08:08:24;;;;;;;;;;;5.30;99.90;;;;;;5010438;28;20422;-77
2023/02/13 08:13:37;;;;;;;;;;;5.40;99.90;;;;;;4996535;28;20458;-76
2023/02/13 08:16:04;;;;;;;;;;;5.40;99.90;;;;;;4993310;28;19941;-77
2023/02/13 08:18:31;;;;;;;;;;;5.40;99.90;;;;;;5013417;28;19926;-76
2023/02/13 08:20:57;;;;;;;;;;;5.40;99.90;;;;;;4993587;28;19937;-77
2023/02/13 08:23:24;;;;;;;;;;;5.40;99.90;;;;;;5010760;28;19925;-77
2023/02/13 08:25:50;;;;;;;;;;;5.30;99.90;;;;;;5008287;28;19932;-76
2023/02/13 08:28:19;;;;;;;;;;;5.40;99.90;;;;;;5002972;28;20016;-77
2023/02/13 08:30:45;;;;;;;;;;;5.30;99.90;;;;;;4993907;28;20325;-77
2023/02/13 08:33:12;;;;;;;;;;;5.40;99.90;;;;;;4993374;28;20318;-78
2023/02/13 08:35:39;;;;;;;;;;;5.50;99.90;;;;;;4993569;28;20616;-77
2023/02/13 08:38:05;;;;;;;;;;;5.60;99.90;;;;;;4994183;28;20525;-75
2023/02/13 08:40:33;;;;;;;;;;;5.60;99.90;;;;;;4978160;28;20016;-77
2023/02/13 08:43:00;;;;;;;;;;;5.70;99.90;;;;;;5013476;28;20613;-76
2023/02/13 08:45:27;;;;;;;;;;;5.60;99.90;;;;;;4992175;28;19932;-78
2023/02/13 08:47:55;;;;;;;;;;;5.50;99.90;;;;;;5006337;28;19932;-76
2023/02/13 08:50:21;;;;;;;;;;;5.50;99.90;;;;;;5009179;28;19957;-75
2023/02/13 08:52:48;;;;;;;;;;;5.50;99.90;;;;;;5012945;28;20418;-76
2023/02/13 08:55:14;;;;;;;;;;;5.70;99.90;;;;;;5008462;28;19961;-77
2023/02/13 08:57:41;;;;;;;;;;;5.60;99.90;;;;;;5010900;28;19925;-78
2023/02/13 09:00:07;;;;;;;;;;;5.60;99.90;;;;;;5009962;28;19936;-75
2023/02/13 09:02:34;;;;;;;;;;;5.70;99.90;;;;;;5009050;28;19929;-76
2023/02/13 09:05:01;;;;;;;;;;;5.70;99.90;;;;;;5004967;28;20007;-75
2023/02/13 09:07:27;;;;;;;;;;;5.70;99.90;;;;;;5011741;28;19933;-76
2023/02/13 09:09:54;;;;;;;;;;;5.70;99.90;;;;;;5001000;28;20121;-77
2023/02/13 09:12:21;;;;;;;;;;;5.80;99.90;;;;;;5010808;28;20052;-76
2023/02/13 09:14:47;;;;;;;;;;;5.80;99.90;;;;;;5004614;28;19932;-78
2023/02/13 09:17:17;;;;;;;;;;;5.90;99.90;;;;;;5014579;28;19926;-76
2023/02/13 09:19:45;;;;;;;;;;;5.90;99.90;;;;;;5008804;28;19933;-77
2023/02/13 09:22:12;;;;;;;;;;;5.90;99.90;;;;;;5012959;28;19925;-77
2023/02/13 09:24:38;;;;;;;;;;;5.90;99.90;;;;;;5014499;28;20446;-77
2023/02/13 09:27:06;;;;;;;;;;;5.90;99.90;;;;;;4998958;28;19929;-77
2023/02/13 09:29:33;;;;;;;;;;;5.90;99.90;;;;;;4998615;28;19933;-78
2023/02/13 09:32:00;;;;;;;;;;;5.80;99.90;;;;;;5001091;28;19930;-77
2023/02/13 09:34:26;;;;;;;;;;;5.80;99.90;;;;;;4996029;28;19926;-76
2023/02/13 09:36:53;;;;;;;;;;;5.80;99.90;;;;;;4997926;28;19932;-78
2023/02/13 09:39:20;;;;;;;;;;;5.90;99.90;;;;;;4999933;28;20410;-75
2023/02/13 09:41:48;;;;;;;;;;;6.10;99.90;;;;;;5000874;28;20636;-76
2023/02/13 09:44:54;;;;;;;;;;;6.20;99.90;;;;;;5012577;28;20854;-77
2023/02/13 09:47:27;;;;;;;;;;;6.30;99.90;;;;;;4991995;28;19925;-75
2023/02/13 09:50:03;;;;;;;;;;;6.40;99.90;;;;;;4994452;28;19925;-77
2023/02/13 09:52:33;;;;;;;;;;;6.50;99.90;;;;;;4980139;28;20034;-77
2023/02/13 09:55:12;;;;;;;;;;;6.40;99.90;;;;;;5000400;28;19930;-78
2023/02/13 09:57:42;;;;;;;;;;;6.40;99.90;;;;;;5013169;28;19986;-76
2023/02/13 10:00:20;;;;;;;;;;;6.30;99.90;;;;;;4998992;28;20451;-77
2023/02/13 10:02:53;;;;;;;;;;;6.20;99.90;;;;;;4998973;28;19925;-77
2023/02/13 10:05:38;;;;;;;;;;;6.20;99.90;;;;;;5009700;28;19968;-77
2023/02/13 10:08:17;;;;;;;;;;;6.10;99.90;;;;;;5010832;28;19936;-76
2023/02/13 10:10:49;;;;;;;;;;;6.20;99.90;;;;;;5013502;28;19935;-77
2023/02/13 10:13:16;;;;;;;;;;;6.50;99.90;;;;;;5007780;28;20315;-76
2023/02/13 10:15:50;;;;;;;;;;;6.70;99.90;;;;;;5010751;28;20024;-77
2023/02/13 10:18:19;;;;;;;;;;;6.70;99.90;;;;;;4998204;28;20020;-75
2023/02/13 10:20:49;;;;;;;;;;;6.70;99.90;;;;;;4996034;28;19925;-75
2023/02/13 10:23:16;;;;;;;;;;;6.70;99.90;;;;;;5011104;28;20318;-76
2023/02/13 10:26:02;;;;;;;;;;;6.80;99.90;;;;;;4996984;28;19933;-77
2023/02/13 10:30:03;;;;;;;;;;;6.80;99.90;;;;;;5007331;28;20562;-75
2023/02/13 10:31:38;;;;;;;;;;;6.60;99.90;;;;;;5010065;28;20000;-76
2023/02/13 10:34:09;;;;;;;;;;;6.50;99.90;;;;;;4998866;28;19972;-79
2023/02/13 10:36:39;;;;;;;;;;;6.50;99.90;;;;;;4995910;28;20009;-78
2023/02/13 10:39:06;;;;;;;;;;;6.60;99.90;;;;;;4996686;28;20146;-77
2023/02/13 10:41:32;;;;;;;;;;;6.70;99.90;;;;;;4993911;28;19940;-77
2023/02/13 10:44:05;;;;;;;;;;;6.80;99.90;;;;;;5011278;28;19929;-78
2023/02/13 10:46:56;;;;;;;;;;;6.70;99.90;;;;;;5008612;28;19932;-76
2023/02/13 10:49:32;;;;;;;;;;;6.70;99.90;;;;;;5009426;28;20085;-74
2023/02/13 10:52:14;;;;;;;;;;;7.10;99.90;;;;;;4997238;28;20429;-75
2023/02/13 10:54:54;;;;;;;;;;;7.10;99.90;;;;;;4995423;28;20041;-75
2023/02/13 10:57:46;;;;;;;;;;;7.00;99.90;;;;;;5007741;28;19932;-76
2023/02/13 11:00:16;;;;;;;;;;;6.90;99.90;;;;;;5009522;28;20351;-76
2023/02/13 11:02:42;;;;;;;;;;;6.90;99.90;;;;;;4985622;28;19936;-75
2023/02/13 11:05:14;;;;;;;;;;;7.10;99.90;;;;;;4981843;28;19929;-78
2023/02/13 11:09:42;;;;;;;16.48;14.77;;;7.00;99.90;;;;;;4808259;28;68175;-73
2023/02/13 11:12:25;;;;;;;17.60;15.80;;;7.10;99.90;;;;;;4958861;28;20682;-73
2023/02/13 11:14:57;;;;;;;14.90;13.38;;;7.00;99.90;;;;;;4998060;28;20042;-73
2023/02/13 11:17:28;;;;;;;16.90;15.27;;;7.10;99.90;;;;;;4996257;28;20085;-73
2023/02/13 11:19:58;;;;;;;16.92;15.18;;;7.10;99.90;;;;;;4990469;28;20045;-73
2023/02/13 11:22:41;;;;;;;17.88;15.70;;;7.10;99.90;;;;;;4994723;28;20050;-73
2023/02/13 11:25:24;;;;;;;17.50;15.70;;;7.00;99.90;;;;;;5005887;28;20174;-73
2023/02/13 11:28:06;;;;;;;15.65;14.15;;;7.20;99.90;;;;;;4982115;28;20133;-73
2023/02/13 11:30:35;;;;;;;16.88;15.35;;;7.50;99.90;;;;;;4988819;28;20049;-72
2023/02/13 11:33:26;;;;;;;17.67;16.35;;;7.70;99.90;;;;;;4985553;28;20030;-74
2023/02/13 11:36:09;;;;;;;17.95;16.42;;;7.70;99.90;;;;;;4988999;28;20587;-73
2023/02/13 11:38:36;;;;;;;19.13;17.48;;;7.80;99.90;;;;;;4982748;28;20057;-72
2023/02/13 11:41:16;;;;;;;19.25;17.73;;;7.80;99.90;;;;;;4999403;28;20042;-73
2023/02/13 11:43:51;;;;;;;20.33;18.52;;;7.90;99.90;;;;;;4986483;28;20137;-73
2023/02/13 11:46:25;;;;;;;20.55;18.85;;;7.90;99.90;;;;;;4994580;28;20087;-73
2023/02/13 11:49:04;;;;;;;19.23;17.88;;;7.90;99.90;;;;;;4979911;28;20057;-74
2023/02/13 11:51:56;;;;;;;22.13;20.33;;;7.90;99.90;;;;;;4996088;28;20528;-73
2023/02/13 11:54:42;;;;;;;20.05;18.35;;;8.00;99.90;;;;;;4993219;28;20049;-73
2023/02/13 11:57:21;;;;;;;20.60;18.75;;;8.10;99.90;;;;;;5003616;28;20374;-72
2023/02/13 11:59:51;;;;;;;21.52;19.83;;;8.30;99.90;;;;;;5000585;28;20912;-73
2023/02/13 12:02:41;;;;;;;20.77;19.05;;;8.70;99.90;;;;;;4986886;28;20673;-72
2023/02/13 12:05:24;;;;;;;22.17;20.48;;;8.80;99.90;;;;;;4990078;28;20049;-73
2023/02/13 12:07:54;;;;;;;25.27;23.38;;;9.10;99.90;;;;;;4986441;28;20283;-73
2023/02/13 12:10:22;;;;;;;25.52;23.63;;;9.50;99.90;;;;;;4993922;28;20447;-73
2023/02/13 12:12:53;;;;;;;26.92;25.15;;;9.70;99.90;;;;;;5006448;28;20714;-73
2023/02/13 12:15:22;;;;;;;23.05;21.33;;;9.10;99.90;;;;;;4996566;28;20049;-73
2023/02/13 12:18:03;;;;;;;23.50;21.70;;;9.00;99.90;;;;;;5002330;28;20863;-74
2023/02/13 12:20:45;;;;;;;24.85;22.85;;;9.30;99.90;;;;;;4987358;28;20340;-74
2023/02/13 12:23:38;;;;;;;29.13;27.08;;;9.60;99.90;;;;;;4991790;28;20077;-74
2023/02/13 12:26:11;;;;;;;27.27;25.17;;;9.40;99.90;;;;;;4981612;28;20205;-74
2023/02/13 12:29:11;;;;;;;27.00;24.95;;;9.10;99.90;;;;;;4985373;28;20070;-74
2023/02/13 12:32:01;;;;;;;25.30;23.30;;;8.80;99.90;;;;;;4989060;28;20046;-74
2023/02/13 12:34:55;;;;;;;25.52;23.40;;;8.70;99.90;;;;;;4990850;28;20042;-74
2023/02/13 12:37:35;;;;;;;24.73;22.52;;;8.60;99.90;;;;;;4980704;28;20034;-73
2023/02/13 12:40:56;;;;;;;22.98;21.10;;;8.70;99.90;;;;;;4986491;28;20207;-72
2023/02/13 12:43:45;;;;;;;21.98;20.10;;;8.30;99.90;;;;;;4968475;28;20085;-74
2023/02/13 12:46:25;;;;;;;21.35;19.48;;;8.60;99.90;;;;;;4985588;28;20053;-74
2023/02/13 12:49:04;;;;;;;24.08;22.10;;;9.00;99.90;;;;;;4986603;28;20538;-72
2023/02/13 12:51:48;;;;;;;25.33;23.42;;;9.00;99.90;;;;;;4986920;28;20064;-72
2023/02/13 12:54:54;;;;;;;24.35;22.50;;;9.10;99.90;;;;;;5004854;28;20074;-73
2023/02/13 12:57:49;;;;;;;25.73;23.75;;;9.00;99.90;;;;;;4971923;28;20101;-74
2023/02/13 13:01:03;;;;;;;23.95;21.92;;;9.10;99.90;;;;;;4977039;28;20046;-74
2023/02/13 13:03:54;;;;;;;24.27;22.27;;;9.20;99.90;;;;;;4976289;28;20108;-75
2023/02/13 13:06:42;;;;;;;24.23;22.33;;;9.40;99.90;;;;;;4986913;28;20041;-72
2023/02/13 13:09:45;;;;;;;27.80;25.70;;;9.50;99.90;;;;;;4988596;28;20321;-73
2023/02/13 13:12:12;;;;;;;29.48;27.27;;;9.60;99.90;;;;;;4994463;28;20508;-75
2023/02/13 13:14:44;;;;;;;29.90;27.60;;;9.50;99.90;;;;;;4983249;28;20164;-72
2023/02/13 13:17:43;;;;;;;32.92;30.73;;;9.50;99.90;;;;;;4989534;28;20046;-73
2023/02/13 13:20:13;;;;;;;27.10;25.30;;;9.50;99.90;;;;;;4987499;28;20046;-73
2023/02/13 13:22:52;;;;;;;31.10;28.60;;;9.80;99.90;;;;;;4994271;28;20213;-73
2023/02/13 13:25:24;;;;;;;27.95;26.05;;;9.80;99.90;;;;;;4991936;28;20045;-72
2023/02/13 13:28:06;;;;;;;31.42;29.02;;;9.80;99.90;;;;;;4985395;28;20058;-73
2023/02/13 13:30:35;;;;;;;31.50;29.00;;;9.90;99.90;;;;;;4986687;28;20045;-73
2023/02/13 13:33:23;;;;;;;31.67;29.30;;;10.10;99.90;;;;;;4989882;28;20049;-73
2023/02/13 13:36:10;;;;;;;30.85;28.58;;;10.10;99.90;;;;;;4987587;28;20049;-72
2023/02/13 13:39:08;;;;;;;31.67;29.30;;;10.20;99.90;;;;;;4980822;28;20080;-73
2023/02/13 13:41:50;;;;;;;30.08;27.98;;;10.40;99.90;;;;;;4987567;28;20045;-73
2023/02/13 13:44:22;;;;;;;35.33;32.20;;;10.00;99.90;;;;;;4990816;28;20425;-72
2023/02/13 13:47:15;;;;;;;32.30;29.40;;;10.00;99.90;;;;;;4987923;28;20500;-73
2023/02/13 13:49:48;;;;;;;31.98;29.38;;;10.30;99.90;;;;;;4976168;28;20038;-73
2023/02/13 13:52:22;;;;;;;30.17;27.92;;;10.40;99.90;;;;;;4990701;28;20030;-73
2023/02/13 13:54:53;;;;;;;28.00;25.80;;;10.50;99.90;;;;;;4990006;28;20057;-73
2023/02/13 13:57:26;;;;;;;28.20;25.63;;;9.90;99.90;;;;;;4990063;28;20042;-72
2023/02/13 14:00:19;;;;;;;28.92;26.42;;;9.90;99.90;;;;;;4986403;28;20475;-73
2023/02/13 14:03:09;;;;;;;27.42;25.25;;;9.90;99.90;;;;;;4982650;28;20348;-73
2023/02/13 14:06:00;;;;;;;28.63;26.05;;;10.00;99.90;;;;;;4985016;28;20135;-74
2023/02/13 14:08:39;;;;;;;29.15;26.75;;;10.00;99.90;;;;;;4988482;28;20053;-71
2023/02/13 14:11:31;;;;;;;26.67;24.45;;;9.90;99.90;;;;;;4984772;28;20088;-75
2023/02/13 14:13:58;;;;;;;27.80;25.33;;;9.90;99.90;;;;;;4975632;28;20291;-71
2023/02/13 14:16:45;;;;;;;27.42;25.23;;;10.00;99.90;;;;;;4988058;28;20355;-73
2023/02/13 14:19:39;;;;;;;29.30;26.80;;;10.00;99.90;;;;;;4978023;28;20089;-74
2023/02/13 14:22:31;;;;;;;28.90;26.60;;;10.20;99.90;;;;;;4979201;28;20439;-72
2023/02/13 14:25:04;;;;;;;30.73;28.02;;;10.30;99.90;;;;;;4992381;28;20386;-74
2023/02/13 14:27:36;;;;;;;29.95;27.45;;;10.10;99.90;;;;;;4987391;28;20615;-71
2023/02/13 14:30:28;;;;;;;29.02;26.73;;;10.10;99.90;;;;;;4973991;28;20234;-72
2023/02/13 14:32:59;;;;;;;30.30;27.65;;;10.10;99.90;;;;;;4963610;28;20065;-74
2023/02/13 14:35:30;;;;;;;30.55;27.70;;;9.90;99.90;;;;;;4970256;28;20046;-72
2023/02/13 14:37:58;;;;;;;31.00;28.30;;;9.80;99.90;;;;;;4975305;28;20409;-75
2023/02/13 14:40:28;;;;;;;32.10;29.30;;;9.60;99.90;;;;;;4986569;28;20229;-72
2023/02/13 14:43:00;;;;;;;35.22;31.80;;;9.60;99.90;;;;;;4991396;28;20587;-72
2023/02/13 14:45:43;;;;;;;31.38;28.48;;;9.60;99.90;;;;;;4989424;28;20068;-72
2023/02/13 14:48:13;;;;;;;32.88;29.45;;;9.50;99.90;;;;;;4987913;28;20495;-71
2023/02/13 14:50:46;;;;;;;32.75;29.60;;;9.50;99.90;;;;;;4974888;28;20428;-73
2023/02/13 14:53:30;;;;;;;34.40;31.13;;;9.40;99.90;;;;;;4984423;28;20041;-74
2023/02/13 14:56:11;;;;;;;32.88;29.80;;;9.40;99.90;;;;;;4962119;28;20048;-74
2023/02/13 14:58:48;;;;;;;31.65;28.63;;;9.50;99.90;;;;;;4987462;28;20049;-72
2023/02/13 15:01:32;;;;;;;34.17;31.08;;;9.60;99.90;;;;;;4984085;28;20038;-72
2023/02/13 15:04:11;;;;;;;32.60;29.70;;;9.50;99.90;;;;;;4985301;28;20054;-75
2023/02/13 15:06:43;;;;;;;33.65;30.35;;;9.40;99.90;;;;;;4988882;28;20327;-74
2023/02/13 15:09:19;;;;;;;32.47;29.27;;;9.40;99.90;;;;;;4988388;28;20104;-73
2023/02/13 15:11:46;;;;;;;31.90;28.90;;;9.40;99.90;;;;;;4988367;28;20038;-73